Time;durP1;ratioP1;P1;durP2;ratioP2;P2;SDS_P1;SDS_P2;PMS_P1;PMS_P2;Temp;Humidity;BMP_temperature;BMP_pressure;BME280_temperature;BME280_humidity;BME280_pressure;Samples;Min_cycle;Max_cycle;Signal;HPM_P1;HPM_P2
2022/01/12 00:01:14;;;;;;;25.48;11.90;;;;;;;2.20;81.52;103381.97;5007394;28;20619;-73
2022/01/12 00:03:39;;;;;;;27.77;11.68;;;;;;;2.21;81.83;103393.47;5006876;28;20131;-74
2022/01/12 00:06:05;;;;;;;24.92;11.68;;;;;;;2.24;81.67;103401.44;5006095;28;20061;-74
2022/01/12 00:08:31;;;;;;;27.95;12.55;;;;;;;2.25;80.98;103396.13;4989965;28;20348;-74
2022/01/12 00:11:02;;;;;;;27.05;12.05;;;;;;;2.27;81.13;103405.00;5006811;28;20081;-74
2022/01/12 00:13:28;;;;;;;24.77;11.57;;;;;;;2.28;81.19;103405.88;5007479;28;20176;-74
2022/01/12 00:15:54;;;;;;;26.15;12.30;;;;;;;2.31;80.83;103415.59;4989804;28;20038;-74
2022/01/12 00:18:20;;;;;;;29.35;13.00;;;;;;;2.32;81.72;103412.97;4989863;28;20180;-73
2022/01/12 00:20:46;;;;;;;27.77;12.82;;;;;;;2.33;81.29;103414.75;5006867;28;20141;-73
2022/01/12 00:23:12;;;;;;;24.20;11.10;;;;;;;2.35;81.21;103420.06;5008190;28;20065;-73
2022/01/12 00:33:49;;;;;;;27.17;12.82;;;;;;;2.39;81.02;103419.19;5012013;28;20053;-73
2022/01/12 00:36:14;;;;;;;26.23;12.77;;;;;;;2.39;80.72;103429.81;5005501;28;20022;-73
2022/01/12 00:38:40;;;;;;;25.38;10.55;;;;;;;2.40;81.06;103427.16;5010774;28;20489;-74
2022/01/12 00:41:05;;;;;;;27.38;13.20;;;;;;;2.40;80.82;103435.09;5014653;28;20040;-74
2022/01/12 00:43:33;;;;;;;25.23;12.23;;;;;;;2.42;81.28;103443.06;4992895;28;20045;-74
2022/01/12 00:45:59;;;;;;;27.00;12.63;;;;;;;2.42;82.37;103443.06;5010465;28;20030;-74
2022/01/12 00:48:24;;;;;;;32.22;13.93;;;;;;;2.43;81.61;103447.47;4992132;28;20092;-74
2022/01/12 00:50:49;;;;;;;28.15;13.00;;;;;;;2.43;83.21;103453.69;5011695;28;20034;-74
2022/01/12 00:53:16;;;;;;;29.80;12.93;;;;;;;2.41;83.16;103454.56;5013346;28;20113;-74
2022/01/12 00:55:41;;;;;;;27.17;13.25;;;;;;;2.41;83.56;103449.25;5011076;28;20030;-73
2022/01/12 00:58:06;;;;;;;29.05;13.82;;;;;;;2.39;84.34;103451.91;5010451;28;20508;-73
2022/01/12 01:00:32;;;;;;;27.17;12.93;;;;;;;2.38;84.59;103459.88;4995433;28;20034;-73
2022/01/12 01:02:58;;;;;;;26.02;12.93;;;;;;;2.35;85.52;103463.38;5010032;28;20030;-75
2022/01/12 01:05:25;;;;;;;29.40;14.27;;;;;;;2.29;86.01;103463.38;5010662;28;20109;-74
2022/01/12 01:07:51;;;;;;;27.23;14.05;;;;;;;2.25;86.39;103465.13;5009929;28;20030;-73
2022/01/12 01:10:41;;;;;;;29.33;13.77;;;;;;;2.23;87.49;103466.88;5012828;28;20036;-73
2022/01/12 01:13:06;;;;;;;31.80;14.35;;;;;;;2.21;87.65;103471.31;4992776;28;20049;-73
2022/01/12 01:16:10;;;;;;;30.17;15.70;;;;;;;2.20;88.08;103471.31;5010186;28;20048;-73
2022/01/12 01:26:40;;;;;;;28.40;14.80;;;;;;;2.09;89.08;103458.88;5010253;28;20120;-73
2022/01/12 01:29:06;;;;;;;27.25;13.75;;;;;;;2.05;89.90;103446.47;4994475;28;20664;-73
2022/01/12 01:31:33;;;;;;;31.15;15.98;;;;;;;2.01;90.23;103442.03;5018613;28;20034;-73
2022/01/12 01:34:07;;;;;;;30.75;16.40;;;;;;;1.98;90.90;103444.69;5009031;28;20033;-73
2022/01/12 01:36:34;;;;;;;30.50;15.23;;;;;;;1.91;90.81;103451.72;5007309;28;20034;-73
2022/01/12 01:38:59;;;;;;;27.17;14.82;;;;;;;1.89;91.20;103460.56;4994385;28;20552;-73
2022/01/12 01:41:24;;;;;;;34.97;17.08;;;;;;;1.89;90.80;103464.09;5014962;28;20030;-73
2022/01/12 01:44:19;;;;;;;34.03;16.05;;;;;;;1.88;91.31;103477.34;5010518;28;20033;-73
2022/01/12 01:54:54;;;;;;;30.55;17.45;;;;;;;1.87;91.38;103471.13;5010005;28;20121;-73
2022/01/12 01:57:19;;;;;;;31.38;17.08;;;;;;;1.87;92.21;103454.34;5009458;28;20048;-73
2022/01/12 01:59:45;;;;;;;28.85;16.33;;;;;;;1.85;92.21;103443.72;5018020;28;20079;-73
2022/01/12 02:02:11;;;;;;;30.15;15.50;;;;;;;1.85;92.09;103450.81;4992038;28;20068;-73
2022/01/12 02:04:37;;;;;;;31.35;15.32;;;;;;;1.83;92.45;103441.94;4991378;28;20033;-74
2022/01/12 02:07:02;;;;;;;32.05;17.25;;;;;;;1.83;92.55;103426.94;5008597;28;20029;-73
2022/01/12 02:09:28;;;;;;;30.55;16.00;;;;;;;1.81;92.50;103428.69;5010017;28;20030;-73
2022/01/12 02:11:53;;;;;;;34.05;16.65;;;;;;;1.79;92.57;103437.50;4991120;28;20111;-73
2022/01/12 02:14:20;;;;;;;31.55;15.80;;;;;;;1.81;92.99;103436.63;5009196;28;20033;-73
2022/01/12 02:16:53;;;;;;;31.77;16.73;;;;;;;1.79;92.68;103432.19;4990700;28;20037;-73
2022/01/12 02:19:47;;;;;;;33.53;17.88;;;;;;;1.79;92.52;103438.41;5004851;28;20029;-73
2022/01/12 02:35:54;;;;;;;30.90;15.30;;;;;;;1.78;92.13;103468.44;5010767;28;20520;-73
2022/01/12 02:41:06;;;;;;;33.05;16.90;;;;;;;1.79;92.44;103474.63;4972125;28;20393;-73
2022/01/12 02:53:50;;;;;;;33.08;16.85;;;;;;;1.84;92.02;103478.19;5009198;28;20029;-73
2022/01/12 02:56:22;;;;;;;31.25;16.25;;;;;;;1.86;92.43;103481.72;4991589;28;20034;-73
2022/01/12 02:58:50;;;;;;;34.85;17.20;;;;;;;1.86;92.56;103487.94;5008884;28;20440;-73
2022/01/12 03:03:45;;;;;;;29.88;16.70;;;;;;;1.87;92.38;103488.81;5007034;28;20470;-74
2022/01/12 03:06:16;;;;;;;33.17;15.70;;;;;;;1.86;92.42;103493.25;5025673;28;21119;-73
2022/01/12 03:08:42;;;;;;;32.78;16.88;;;;;;;1.86;92.08;103497.63;5008402;28;20445;-73
2022/01/12 03:11:10;;;;;;;29.80;15.50;;;;;;;1.87;92.24;103515.34;4992946;28;20026;-73
2022/01/12 03:13:36;;;;;;;32.17;16.15;;;;;;;1.86;92.38;103514.47;5009061;28;20117;-73
2022/01/12 03:16:12;;;;;;;34.90;18.48;;;;;;;1.89;92.09;103526.88;5010930;28;20022;-73
2022/01/12 03:18:37;;;;;;;31.05;15.63;;;;;;;1.88;92.14;103533.91;5007582;28;20029;-73
2022/01/12 03:21:04;;;;;;;35.25;18.63;;;;;;;1.90;91.91;103536.56;5007608;28;20556;-73
2022/01/12 03:23:30;;;;;;;36.92;18.75;;;;;;;1.92;92.69;103529.53;5008018;28;20109;-73
2022/01/12 03:25:55;;;;;;;34.58;18.50;;;;;;;1.91;92.16;103531.28;5008354;28;20101;-73
2022/01/12 03:28:21;;;;;;;31.15;17.55;;;;;;;1.91;92.03;103536.56;5007341;28;20557;-73
2022/01/12 03:30:53;;;;;;;36.53;18.73;;;;;;;1.92;92.64;103529.53;5007776;28;20025;-73
2022/01/12 03:33:35;;;;;;;31.02;16.75;;;;;;;1.92;92.31;103538.34;5007667;28;20030;-73
2022/01/12 03:36:25;;;;;;;31.35;17.52;;;;;;;1.94;92.35;103527.75;5013511;28;20030;-73
2022/01/12 03:38:55;;;;;;;32.38;17.27;;;;;;;1.92;91.92;103530.41;5001895;28;20080;-73
2022/01/12 03:41:21;;;;;;;32.83;16.77;;;;;;;1.92;92.08;103525.09;5008331;28;20026;-73
2022/01/12 03:43:47;;;;;;;32.38;18.70;;;;;;;1.92;92.24;103525.09;5008521;28;20504;-73
2022/01/12 03:46:14;;;;;;;31.83;18.33;;;;;;;1.92;91.93;103521.56;4990172;28;20029;-73
2022/01/12 03:48:40;;;;;;;36.83;20.05;;;;;;;1.92;92.38;103516.25;4989628;28;20048;-73
2022/01/12 03:51:06;;;;;;;35.47;17.08;;;;;;;1.91;92.66;103514.47;5010712;28;20037;-73
2022/01/12 03:53:31;;;;;;;34.10;18.80;;;;;;;1.91;92.33;103519.78;5009586;28;20069;-73
2022/01/12 03:55:56;;;;;;;33.42;19.17;;;;;;;1.89;92.55;103524.22;5007907;28;20560;-73
2022/01/12 03:58:21;;;;;;;36.83;18.35;;;;;;;1.91;92.65;103527.75;5007182;28;20124;-73
2022/01/12 04:00:47;;;;;;;40.20;21.10;;;;;;;1.91;92.70;103544.53;4995613;28;20037;-73
2022/01/12 04:03:14;;;;;;;36.17;16.95;;;;;;;1.92;92.85;103545.44;5011944;28;20037;-74
2022/01/12 04:08:18;;;;;;;36.33;19.25;;;;;;;1.91;92.78;103554.25;4993471;28;20033;-73
2022/01/12 04:08:25;;;;;;;33.40;17.02;;;;;;;1.90;92.60;103555.13;5011201;28;20042;-73
2022/01/12 04:10:54;;;;;;;32.00;19.30;;;;;;;1.88;93.29;103548.94;5012695;28;20029;-73
2022/01/12 04:13:22;;;;;;;33.63;18.77;;;;;;;1.88;93.44;103555.13;5009849;28;20053;-73
2022/01/12 04:15:51;;;;;;;35.90;18.17;;;;;;;1.87;92.84;103561.28;4993578;28;20025;-73
2022/01/12 04:18:17;;;;;;;33.60;18.63;;;;;;;1.90;93.04;103552.47;5010742;28;20033;-73
2022/01/12 04:20:46;;;;;;;37.10;19.27;;;;;;;1.90;93.02;103555.13;5010781;28;20375;-73
2022/01/12 04:23:17;;;;;;;36.90;19.60;;;;;;;1.91;93.49;103548.97;4999363;28;20431;-73
2022/01/12 04:25:47;;;;;;;34.72;18.98;;;;;;;1.90;93.19;103552.47;5012345;28;20502;-73
2022/01/12 04:28:12;;;;;;;;;;;;;;;2.00;92.49;103550.78;5011683;28;20199;-73
2022/01/12 04:30:38;;;;;;;40.03;20.50;;;;;;;1.92;93.18;103551.63;5015664;28;20436;-73
2022/01/12 04:33:03;;;;;;;31.38;18.05;;;;;;;1.92;93.95;103540.13;5005663;28;20088;-73
2022/01/12 04:35:33;;;;;;;42.60;21.98;;;;;;;1.90;93.55;103545.44;4992888;28;20121;-73
2022/01/12 04:37:58;;;;;;;37.92;18.85;;;;;;;1.91;93.36;103546.31;5010717;28;20030;-73
2022/01/12 04:40:24;;;;;;;38.67;20.13;;;;;;;1.92;94.07;103537.47;4993221;28;20503;-74
2022/01/12 04:42:49;;;;;;;38.38;21.45;;;;;;;1.91;93.85;103548.97;5010848;28;20542;-74
2022/01/12 04:50:19;;;;;;;34.13;20.55;;;;;;;1.94;93.75;103546.31;5013110;28;20034;-73
2022/01/12 04:52:45;;;;;;;36.83;20.50;;;;;;;1.94;93.73;103551.63;5009884;28;20140;-73
2022/01/12 04:55:10;;;;;;;36.38;21.30;;;;;;;1.93;94.15;103531.28;5011052;28;20112;-73
2022/01/12 04:57:35;;;;;;;36.53;21.52;;;;;;;1.92;94.08;103524.22;5011070;28;20025;-74
2022/01/12 05:00:08;;;;;;;41.22;23.42;;;;;;;1.91;93.87;103517.13;4992586;28;20037;-74
2022/01/12 05:08:17;;;;;;;35.55;21.42;;;;;;;1.92;94.26;103518.91;5010035;28;20111;-74
2022/01/12 05:13:27;;;;;;;36.25;21.42;;;;;;;1.91;93.77;103530.41;5010274;28;20079;-74
2022/01/12 05:15:53;;;;;;;33.88;20.67;;;;;;;1.92;93.59;103532.19;5010308;28;20554;-73
2022/01/12 05:18:19;;;;;;;41.95;21.88;;;;;;;1.90;93.86;103534.81;5010400;28;20022;-73
2022/01/12 05:20:44;;;;;;;36.83;20.70;;;;;;;1.92;93.96;103532.19;5010373;28;20109;-73
2022/01/12 05:23:10;;;;;;;36.50;22.13;;;;;;;1.95;94.28;103528.63;4992226;28;20033;-73
2022/01/12 05:25:35;;;;;;;37.75;21.80;;;;;;;1.91;93.92;103536.56;5008984;28;20030;-73
2022/01/12 05:28:00;;;;;;;40.50;20.02;;;;;;;1.91;93.97;103533.06;5010614;28;20033;-73
2022/01/12 05:30:26;;;;;;;37.85;20.85;;;;;;;1.92;94.06;103540.13;5014250;28;20074;-73
2022/01/12 05:32:51;;;;;;;36.72;21.98;;;;;;;1.91;93.92;103544.53;5013730;28;20056;-73
2022/01/12 05:35:18;;;;;;;36.40;21.85;;;;;;;1.95;94.31;103545.47;5010066;28;20476;-73
2022/01/12 05:37:46;;;;;;;38.88;22.20;;;;;;;1.90;93.75;103561.34;5009452;28;20021;-73
2022/01/12 05:40:14;;;;;;;37.67;20.98;;;;;;;1.89;93.63;103564.88;5004075;28;20025;-73
2022/01/12 05:42:40;;;;;;;42.33;23.42;;;;;;;1.90;94.30;103564.00;5014813;28;20046;-73
2022/01/12 05:45:07;;;;;;;37.15;22.00;;;;;;;1.89;93.97;103572.81;5009351;28;20168;-73
2022/01/12 05:50:10;;;;;;;34.10;20.52;;;;;;;1.94;94.27;103567.53;5012317;28;20108;-74
2022/01/12 05:52:35;;;;;;;40.70;24.48;;;;;;;1.96;94.80;103564.91;5008697;28;20387;-73
2022/01/12 05:55:02;;;;;;;40.33;22.17;;;;;;;1.94;94.20;103561.38;5008638;28;20080;-73
2022/01/12 05:57:31;;;;;;;38.28;20.55;;;;;;;1.95;94.84;103566.69;5009590;28;20044;-73
2022/01/12 05:59:58;;;;;;;38.35;23.52;;;;;;;1.96;94.70;103559.59;4999742;28;20029;-73
2022/01/12 06:02:23;;;;;;;38.10;23.30;;;;;;;1.95;94.49;103561.38;5011464;28;20537;-73
2022/01/12 06:04:49;;;;;;;36.78;22.27;;;;;;;1.96;95.00;103560.47;5009004;28;20105;-74
2022/01/12 06:07:14;;;;;;;40.38;23.38;;;;;;;1.95;94.71;103564.03;4992320;28;20161;-74
2022/01/12 06:09:39;;;;;;;39.33;23.98;;;;;;;1.97;94.85;103564.03;5016856;28;20412;-73
2022/01/12 06:12:05;;;;;;;37.80;22.92;;;;;;;1.97;94.17;103574.63;5015267;28;20037;-73
2022/01/12 06:14:31;;;;;;;38.63;24.67;;;;;;;1.97;94.44;103574.63;5009088;28;20045;-73
2022/01/12 06:16:56;;;;;;;37.70;22.02;;;;;;;1.98;94.68;103571.13;5009379;28;20422;-73
2022/01/12 06:19:22;;;;;;;40.28;24.42;;;;;;;1.97;94.57;103574.63;4994540;28;20025;-73
2022/01/12 06:21:47;;;;;;;41.67;25.85;;;;;;;1.96;94.88;103588.78;5007387;28;20036;-73
2022/01/12 06:24:12;;;;;;;34.20;20.75;;;;;;;1.97;94.77;103595.84;4990318;28;20037;-73
2022/01/12 06:26:38;;;;;;;37.50;22.52;;;;;;;1.95;94.55;103598.50;4990969;28;20021;-73
2022/01/12 06:31:35;;;;;;;40.35;23.85;;;;;;;1.94;95.09;103602.03;5025475;28;20188;-73
2022/01/12 06:34:01;;;;;;;35.67;21.02;;;;;;;1.95;94.78;103610.84;5010708;28;20033;-73
2022/01/12 06:36:26;;;;;;;38.00;21.90;;;;;;;1.96;94.75;103615.28;4989863;28;20022;-73
2022/01/12 06:38:51;;;;;;;41.08;22.80;;;;;;;1.94;94.85;103617.94;4990625;28;20121;-73
2022/01/12 06:41:19;;;;;;;37.70;21.95;;;;;;;1.95;95.45;103619.72;4991915;28;20052;-73
2022/01/12 06:43:44;;;;;;;42.80;22.52;;;;;;;1.96;94.92;103626.78;5008614;28;20058;-73
2022/01/12 06:46:10;;;;;;;42.63;22.70;;;;;;;1.99;94.79;103623.28;5000531;28;20025;-73
2022/01/12 06:48:36;;;;;;;39.40;21.75;;;;;;;1.98;95.04;103640.09;4989672;28;20038;-73
2022/01/12 06:51:03;;;;;;;42.00;23.02;;;;;;;1.98;94.89;103637.44;4992910;28;20037;-73
2022/01/12 06:53:29;;;;;;;39.50;22.23;;;;;;;1.98;94.82;103633.00;5010178;28;20037;-73
2022/01/12 06:55:54;;;;;;;40.55;24.17;;;;;;;2.01;94.78;103632.16;4992119;28;20057;-73
2022/01/12 06:58:20;;;;;;;38.17;22.67;;;;;;;2.00;94.98;103631.22;5007120;28;20034;-73
2022/01/12 07:00:45;;;;;;;39.38;23.13;;;;;;;2.00;95.38;103636.53;4993566;28;20026;-73
2022/01/12 07:03:11;;;;;;;40.45;23.98;;;;;;;2.00;94.94;103640.97;4989780;28;20783;-74
2022/01/12 07:05:36;;;;;;;39.65;24.95;;;;;;;2.03;95.43;103638.34;4993126;28;20148;-73
2022/01/12 07:08:02;;;;;;;37.28;22.77;;;;;;;2.02;95.58;103640.13;4993366;28;20116;-73
2022/01/12 07:10:27;;;;;;;40.63;24.67;;;;;;;2.02;95.16;103649.81;5007780;28;20463;-73
2022/01/12 07:12:53;;;;;;;38.55;23.30;;;;;;;2.00;95.19;103654.22;4987292;28;20038;-73
2022/01/12 07:15:19;;;;;;;39.75;23.75;;;;;;;2.01;95.20;103664.84;4987814;28;20057;-73
2022/01/12 07:17:45;;;;;;;41.00;24.98;;;;;;;2.03;95.01;103659.56;4988171;28;20033;-73
2022/01/12 07:20:10;;;;;;;39.05;22.70;;;;;;;2.05;95.31;103656.06;4985280;28;20137;-73
2022/01/12 07:22:36;;;;;;;45.83;24.70;;;;;;;2.05;95.67;103658.69;4995451;28;20036;-73
2022/01/12 07:25:01;;;;;;;43.83;24.40;;;;;;;2.07;95.24;103661.38;4991538;28;20034;-73
2022/01/12 07:27:26;;;;;;;43.45;24.85;;;;;;;2.08;95.34;103663.16;4988344;28;20379;-73
2022/01/12 07:29:52;;;;;;;40.13;23.90;;;;;;;2.08;95.58;103658.72;4987252;28;20049;-73
2022/01/12 07:32:17;;;;;;;40.35;23.13;;;;;;;2.07;95.43;103662.25;5004514;28;20052;-73
2022/01/12 07:34:42;;;;;;;40.45;24.52;;;;;;;2.09;95.52;103663.16;4999646;28;20614;-73
2022/01/12 07:37:07;;;;;;;41.67;25.05;;;;;;;2.09;95.47;103676.44;4990908;28;20034;-73
2022/01/12 07:39:33;;;;;;;40.90;24.30;;;;;;;2.10;95.79;103683.50;5006457;28;20038;-73
2022/01/12 07:41:58;;;;;;;40.53;23.17;;;;;;;2.09;95.13;103689.69;4986543;28;20133;-73
2022/01/12 07:44:23;;;;;;;43.42;25.20;;;;;;;2.11;95.57;103692.34;4988948;28;20040;-73
2022/01/12 07:46:49;;;;;;;40.88;26.58;;;;;;;2.12;95.72;103698.53;4987738;28;20080;-73
2022/01/12 07:49:14;;;;;;;41.90;24.73;;;;;;;2.12;95.47;103706.50;4999500;28;20105;-73
2022/01/12 07:51:40;;;;;;;41.13;24.05;;;;;;;2.12;95.68;103706.50;4987624;28;20467;-73
2022/01/12 07:54:05;;;;;;;38.10;23.88;;;;;;;2.11;95.48;103705.63;4988057;28;20032;-73
2022/01/12 07:56:31;;;;;;;42.67;23.95;;;;;;;2.14;95.60;103713.59;4988662;28;20108;-73
2022/01/12 07:58:56;;;;;;;41.20;26.00;;;;;;;2.15;95.68;103714.47;4983321;28;20042;-74
2022/01/12 08:01:21;;;;;;;45.08;25.02;;;;;;;2.16;95.74;103718.91;4989291;28;20068;-73
2022/01/12 08:03:46;;;;;;;41.45;23.98;;;;;;;2.18;95.70;103726.03;4995905;28;20094;-74
2022/01/12 08:06:12;;;;;;;43.00;24.60;;;;;;;2.18;95.96;103733.06;4987137;28;20048;-74
2022/01/12 08:08:37;;;;;;;43.08;26.65;;;;;;;2.20;95.84;103732.22;4988185;28;20030;-74
2022/01/12 08:11:03;;;;;;;40.83;23.60;;;;;;;2.21;95.74;103738.41;4990934;28;20387;-73
2022/01/12 08:13:28;;;;;;;49.67;26.35;;;;;;;2.21;95.70;103743.72;5005469;28;20072;-73
2022/01/12 08:15:53;;;;;;;39.83;26.23;;;;;;;2.20;95.64;103744.59;4998634;28;20042;-73
2022/01/12 08:18:19;;;;;;;44.58;25.90;;;;;;;2.21;96.29;103756.97;5006742;28;20076;-73
2022/01/12 08:20:44;;;;;;;50.03;27.58;;;;;;;2.24;96.37;103757.91;5016138;28;20386;-73
2022/01/12 08:23:09;;;;;;;47.80;27.50;;;;;;;2.24;96.22;103759.66;4989261;28;20037;-73
2022/01/12 08:25:39;;;;;;;50.42;27.85;;;;;;;2.27;96.80;103759.72;4992069;28;20498;-74
2022/01/12 08:28:05;;;;;;;50.50;29.10;;;;;;;2.27;96.88;103762.38;4992067;28;20032;-74
2022/01/12 08:30:32;;;;;;;47.33;27.55;;;;;;;2.24;96.75;103757.00;5007515;28;20558;-74
2022/01/12 08:32:57;;;;;;;64.60;31.75;;;;;;;2.24;97.12;103760.56;5000521;28;20449;-74
2022/01/12 08:35:22;;;;;;;63.08;31.30;;;;;;;2.20;97.06;103758.75;4996650;28;20128;-74
2022/01/12 08:37:48;;;;;;;52.22;30.35;;;;;;;2.23;97.42;103752.59;5015194;28;20051;-73
2022/01/12 08:40:15;;;;;;;52.95;30.50;;;;;;;2.22;98.18;103754.34;4992145;28;20045;-73
2022/01/12 08:42:42;;;;;;;59.95;30.95;;;;;;;2.25;97.92;103756.13;5012424;28;20402;-73
2022/01/12 08:45:09;;;;;;;61.50;32.60;;;;;;;2.27;97.81;103754.41;4992900;28;20163;-73
2022/01/12 08:47:34;;;;;;;51.78;31.33;;;;;;;2.30;98.49;103753.50;5012623;28;20048;-73
2022/01/12 08:49:59;;;;;;;53.22;31.02;;;;;;;2.29;98.56;103752.63;4994953;28;20037;-73
2022/01/12 08:52:26;;;;;;;51.75;30.65;;;;;;;2.33;98.62;103758.84;5014818;28;20079;-73
2022/01/12 08:54:52;;;;;;;61.92;34.35;;;;;;;2.34;99.19;103766.81;5012618;28;20029;-73
2022/01/12 08:57:18;;;;;;;75.20;32.60;;;;;;;2.37;99.23;103765.97;5006132;28;20758;-73
2022/01/12 08:59:44;;;;;;;63.80;31.65;;;;;;;2.42;99.24;103766.91;5010286;28;20057;-73
2022/01/12 09:02:11;;;;;;;76.78;33.65;;;;;;;2.40;99.38;103772.19;5004101;28;20442;-73
2022/01/12 09:04:36;;;;;;;66.72;30.48;;;;;;;2.43;99.53;103773.97;5005542;28;20037;-74
2022/01/12 09:07:02;;;;;;;69.93;32.15;;;;;;;2.44;99.49;103773.97;4991579;28;20710;-73
2022/01/12 09:09:28;;;;;;;55.10;33.58;;;;;;;2.48;99.67;103782.00;5009955;28;20037;-73
2022/01/12 09:11:53;;;;;;;70.20;31.60;;;;;;;2.49;99.70;103786.41;4993329;28;20890;-73
2022/01/12 09:14:19;;;;;;;69.85;31.15;;;;;;;2.49;98.64;103797.03;5006045;28;20197;-73
2022/01/12 09:16:59;;;;;;;53.83;29.80;;;;;;;2.52;99.38;103799.69;4988525;28;20068;-73
2022/01/12 09:19:25;;;;;;;73.38;29.60;;;;;;;2.57;99.73;103801.50;5007568;28;20532;-73
2022/01/12 09:21:51;;;;;;;71.38;30.60;;;;;;;2.58;100.00;103802.44;5005821;28;20034;-73
2022/01/12 09:24:17;;;;;;;68.30;29.65;;;;;;;2.60;100.00;103813.94;5005750;28;20134;-73
2022/01/12 09:26:43;;;;;;;61.95;28.75;;;;;;;2.63;100.00;103806.00;5011207;28;20042;-73
2022/01/12 09:29:08;;;;;;;59.40;30.77;;;;;;;2.64;100.00;103813.09;5002138;28;20030;-73
2022/01/12 09:31:35;;;;;;;66.35;30.38;;;;;;;2.65;100.00;103820.19;4996522;28;20076;-73
2022/01/12 09:34:01;;;;;;;81.55;32.28;;;;;;;2.68;100.00;103822.88;5007560;28;20030;-73
2022/01/12 09:36:26;;;;;;;94.50;34.50;;;;;;;2.71;100.00;103825.53;4987348;28;20092;-73
2022/01/12 09:38:51;;;;;;;55.78;30.52;;;;;;;2.71;100.00;103830.84;5009843;28;20033;-74
2022/01/12 09:41:16;;;;;;;71.35;30.40;;;;;;;2.71;100.00;103833.50;5006231;28;20025;-74
2022/01/12 09:43:43;;;;;;;53.83;26.70;;;;;;;2.70;100.00;103826.41;5003153;28;20549;-74
2022/01/12 09:46:12;;;;;;;86.72;27.77;;;;;;;2.68;100.00;103836.13;5006513;28;20062;-74
2022/01/12 09:48:37;;;;;;;64.75;25.40;;;;;;;2.67;100.00;103830.81;5007761;28;20075;-74
2022/01/12 09:51:06;;;;;;;48.53;21.25;;;;;;;2.70;100.00;103825.53;4981242;28;20030;-74
2022/01/12 09:53:34;;;;;;;67.07;21.43;;;;;;;2.66;100.00;103824.59;5005931;28;20034;-74
2022/01/12 09:56:00;;;;;;;46.78;22.13;;;;;;;2.66;100.00;103832.56;5005854;28;20061;-74
2022/01/12 09:58:32;;;;;;;49.33;20.60;;;;;;;2.69;100.00;103831.72;4986035;28;20132;-73
2022/01/12 10:00:59;;;;;;;46.13;20.83;;;;;;;2.74;100.00;103833.53;5005750;28;20109;-73
2022/01/12 10:03:25;;;;;;;57.83;20.38;;;;;;;2.80;100.00;103843.31;5003439;28;20087;-74
2022/01/12 10:05:50;;;;;;;52.90;20.23;;;;;;;2.81;100.00;103847.72;4988359;28;20029;-74
2022/01/12 10:08:16;;;;;;;56.33;20.42;;;;;;;2.84;100.00;103854.84;4991306;28;20030;-73
2022/01/12 10:10:59;;;;;;;54.53;21.83;;;;;;;2.86;100.00;103869.03;5004360;28;20083;-73
2022/01/12 10:13:25;;;;;;;51.58;22.23;;;;;;;2.90;100.00;103869.06;5003062;28;20104;-73
2022/01/12 10:15:54;;;;;;;64.40;24.05;;;;;;;2.90;100.00;103870.81;5003005;28;21280;-73
2022/01/12 10:18:22;;;;;;;62.00;21.75;;;;;;;2.89;100.00;103866.41;5004751;28;20037;-73
2022/01/12 10:20:49;;;;;;;56.28;22.33;;;;;;;2.89;100.00;103864.63;4985888;28;20026;-73
2022/01/12 10:23:15;;;;;;;82.38;24.05;;;;;;;2.85;100.00;103869.91;5005552;28;20113;-73
2022/01/12 10:25:46;;;;;;;90.05;23.80;;;;;;;2.86;100.00;103858.41;5016340;28;20040;-73
2022/01/12 10:28:15;;;;;;;75.72;24.90;;;;;;;2.87;100.00;103862.81;4996982;28;20053;-73
2022/01/12 10:31:00;;;;;;;97.68;22.25;;;;;;;2.88;100.00;103854.00;5011326;28;20035;-74
2022/01/12 10:33:29;;;;;;;133.60;26.08;;;;;;;2.85;100.00;103848.66;5007045;28;20034;-74
2022/01/12 10:35:58;;;;;;;74.40;22.90;;;;;;;2.82;100.00;103849.50;5001810;28;20101;-74
2022/01/12 10:38:24;;;;;;;127.00;24.98;;;;;;;2.80;100.00;103845.97;5004168;28;20265;-74
2022/01/12 10:40:59;;;;;;;132.50;24.33;;;;;;;2.80;100.00;103840.66;4988710;28;20584;-74
2022/01/12 10:43:30;;;;;;;116.30;23.63;;;;;;;2.82;100.00;103851.28;5004861;28;20049;-74
2022/01/12 10:45:56;;;;;;;130.68;26.25;;;;;;;2.77;100.00;103853.91;5002143;28;20025;-74
2022/01/12 10:48:23;;;;;;;130.90;25.70;;;;;;;2.80;100.00;103852.16;4988205;28;20576;-73
2022/01/12 10:50:59;;;;;;;73.25;22.52;;;;;;;2.84;100.00;103858.41;5002865;28;20069;-74
2022/01/12 10:53:27;;;;;;;151.45;26.35;;;;;;;2.82;100.00;103856.59;4989079;28;20021;-74
2022/01/12 10:56:10;;;;;;;95.20;23.45;;;;;;;2.86;100.00;103855.75;5006675;28;20021;-74
2022/01/12 10:58:38;;;;;;;90.22;23.55;;;;;;;2.86;100.00;103856.63;5004305;28;20030;-74
2022/01/12 11:01:03;;;;;;;77.55;24.25;;;;;;;2.89;100.00;103858.44;5007595;28;20061;-74
2022/01/12 11:03:32;;;;;;;95.00;21.70;;;;;;;2.88;100.00;103865.50;5005551;28;20154;-74
2022/01/12 11:05:58;;;;;;;71.63;23.63;;;;;;;2.91;100.00;103869.94;5002960;28;20124;-74
2022/01/12 11:08:25;;;;;;;88.85;22.42;;;;;;;2.91;99.87;103867.28;5004635;28;20087;-74
2022/01/12 11:10:51;;;;;;;105.25;25.52;;;;;;;2.93;99.96;103862.91;4997981;28;20064;-74
2022/01/12 11:13:17;;;;;;;151.95;26.55;;;;;;;2.89;99.31;103853.13;4984668;28;20058;-74
2022/01/12 11:15:43;;;;;;;78.10;22.90;;;;;;;2.90;99.69;103862.84;4985910;28;20034;-73
2022/01/12 11:18:09;;;;;;;52.03;22.55;;;;;;;2.93;99.77;103857.59;4984413;28;20402;-73
2022/01/12 11:20:35;;;;;;;61.95;23.02;;;;;;;2.93;99.72;103855.81;4987780;28;20025;-73
2022/01/12 11:23:09;;;;;;;56.65;21.80;;;;;;;2.92;99.36;103853.13;4989750;28;20104;-73
2022/01/12 11:25:44;;;;;;;42.35;21.05;;;;;;;2.93;98.89;103865.56;4992799;28;20030;-73
2022/01/12 11:28:21;;;;;;;47.53;20.70;;;;;;;2.97;99.12;103864.66;4987395;28;20030;-73
2022/01/12 11:31:00;;;;;;;38.75;19.92;;;;;;;2.98;98.92;103875.31;4986622;28;20026;-73
2022/01/12 11:33:31;;;;;;;41.50;21.70;;;;;;;2.99;98.24;103873.56;4981503;28;20054;-75
2022/01/12 11:36:04;;;;;;;45.08;19.88;;;;;;;2.99;97.98;103865.59;4987612;28;20113;-74
2022/01/12 11:38:34;;;;;;;39.63;19.55;;;;;;;3.03;98.59;103875.38;4986639;28;20034;-74
2022/01/12 11:41:14;;;;;;;38.72;19.25;;;;;;;3.07;98.89;103874.47;4990913;28;20033;-74
2022/01/12 11:43:50;;;;;;;33.10;18.85;;;;;;;3.08;98.44;103875.41;4983736;28;20489;-74
2022/01/12 11:46:19;;;;;;;42.28;21.00;;;;;;;3.09;97.82;103867.44;4987388;28;20038;-74
2022/01/12 11:48:51;;;;;;;36.07;20.70;;;;;;;3.09;97.06;103864.78;4986012;28;20038;-74
2022/01/12 11:51:19;;;;;;;44.30;22.08;;;;;;;3.08;96.92;103860.31;4994387;28;20026;-74
2022/01/12 11:53:54;;;;;;;38.10;20.25;;;;;;;3.09;96.78;103850.56;4985272;28;20040;-74
2022/01/12 11:56:25;;;;;;;45.67;20.08;;;;;;;3.08;96.67;103852.34;4988648;28;20031;-74
2022/01/12 11:58:57;;;;;;;39.28;20.88;;;;;;;3.12;97.34;103847.97;4988390;28;20030;-74
2022/01/12 12:01:23;;;;;;;38.47;19.70;;;;;;;3.11;97.16;103847.06;4988923;28;20029;-74
2022/01/12 12:04:00;;;;;;;40.72;21.48;;;;;;;3.15;97.29;103855.97;4995666;28;20633;-74
2022/01/12 12:06:25;;;;;;;40.25;21.15;;;;;;;3.12;96.51;103856.81;4986550;28;20145;-74
2022/01/12 12:08:58;;;;;;;42.03;19.20;;;;;;;3.18;97.44;103863.94;4990306;28;20065;-74
2022/01/12 12:11:31;;;;;;;37.08;19.58;;;;;;;3.20;97.28;103854.19;4989306;28;20466;-74
2022/01/12 12:14:07;;;;;;;40.65;19.15;;;;;;;3.21;95.84;103860.44;4988850;28;20103;-74
2022/01/12 12:16:34;;;;;;;38.53;21.00;;;;;;;3.19;95.99;103864.81;5006339;28;20034;-74
2022/01/12 12:19:03;;;;;;;40.15;20.40;;;;;;;3.14;94.88;103860.38;4989058;28;20083;-74
2022/01/12 12:21:28;;;;;;;37.83;20.08;;;;;;;3.11;94.49;103868.31;5011637;28;20014;-74
2022/01/12 12:23:54;;;;;;;39.15;21.35;;;;;;;3.11;95.35;103862.13;5014550;28;20424;-74
2022/01/12 12:26:20;;;;;;;38.58;18.92;;;;;;;3.09;94.90;103872.75;5010303;28;20017;-73
2022/01/12 12:28:56;;;;;;;35.95;19.23;;;;;;;3.12;95.72;103858.59;5012366;28;20022;-73
2022/01/12 12:31:23;;;;;;;39.97;19.00;;;;;;;3.13;95.54;103869.22;4998244;28;20021;-73